createdAt,value
2022-09-25T00:01:12.270Z,99.90
2022-09-25T00:03:51.399Z,99.90
2022-09-25T00:06:24.768Z,99.90
2022-09-25T00:08:53.743Z,99.90
2022-09-25T00:11:27.578Z,99.90
2022-09-25T00:13:56.854Z,99.90
2022-09-25T00:16:27.977Z,99.90
2022-09-25T00:19:14.452Z,99.90
2022-09-25T00:21:43.522Z,99.90
2022-09-25T00:24:13.452Z,99.90
2022-09-25T00:26:44.073Z,99.90
2022-09-25T00:29:17.630Z,99.90
2022-09-25T00:31:46.165Z,99.90
2022-09-25T00:34:14.891Z,99.90
2022-09-25T00:36:43.474Z,99.90
2022-09-25T00:39:12.040Z,99.90
2022-09-25T00:41:40.909Z,99.90
2022-09-25T00:44:42.331Z,99.90
2022-09-25T00:47:16.410Z,99.90
2022-09-25T00:49:45.272Z,99.90
2022-09-25T00:52:15.073Z,99.90
2022-09-25T00:54:49.048Z,99.90
2022-09-25T00:57:20.777Z,99.90
2022-09-25T00:59:51.822Z,99.90
2022-09-25T01:02:28.221Z,99.90
2022-09-25T01:05:01.693Z,99.90
2022-09-25T01:07:30.783Z,99.90
2022-09-25T01:10:02.413Z,99.90
2022-09-25T01:12:31.123Z,99.90
2022-09-25T01:14:59.570Z,99.90
2022-09-25T01:17:36.551Z,99.90
2022-09-25T01:20:17.626Z,99.90
2022-09-25T01:22:59.490Z,99.90
2022-09-25T01:25:42.725Z,99.90
2022-09-25T01:28:47.349Z,99.90
2022-09-25T01:31:28.890Z,99.90
2022-09-25T01:34:03.236Z,99.90
2022-09-25T01:36:38.483Z,99.90
2022-09-25T01:39:13.867Z,99.90
2022-09-25T01:41:47.904Z,99.90
2022-09-25T01:44:24.040Z,99.90
2022-09-25T01:46:56.145Z,99.90
2022-09-25T01:49:29.453Z,99.90
2022-09-25T01:52:01.470Z,99.90
2022-09-25T01:54:35.978Z,99.90
2022-09-25T01:57:09.856Z,99.90
2022-09-25T01:59:44.201Z,99.90
2022-09-25T02:02:19.431Z,99.90
2022-09-25T02:04:52.123Z,99.90
2022-09-25T02:07:25.726Z,99.90
2022-09-25T02:09:56.691Z,99.90
2022-09-25T02:12:34.488Z,99.90
2022-09-25T02:15:09.400Z,99.90
2022-09-25T02:18:03.186Z,99.90
2022-09-25T02:20:36.459Z,99.90
2022-09-25T02:23:14.761Z,99.90
2022-09-25T02:25:47.037Z,99.90
2022-09-25T02:28:15.564Z,99.90
2022-09-25T02:30:46.129Z,99.90
2022-09-25T02:33:16.358Z,99.90
2022-09-25T02:35:45.030Z,99.90
2022-09-25T02:38:13.775Z,99.90
2022-09-25T02:40:48.682Z,99.90
2022-09-25T02:43:28.121Z,99.90
2022-09-25T02:46:03.408Z,99.90
2022-09-25T02:48:44.515Z,99.90
2022-09-25T02:51:20.917Z,99.90
2022-09-25T02:53:56.976Z,99.90
2022-09-25T02:56:33.927Z,99.90
2022-09-25T02:59:06.957Z,99.90
2022-09-25T03:01:39.800Z,99.90
2022-09-25T03:04:11.175Z,99.90
2022-09-25T03:06:40.823Z,99.90
2022-09-25T03:09:12.065Z,99.90
2022-09-25T03:11:41.566Z,99.90
2022-09-25T03:14:10.508Z,99.90
2022-09-25T03:16:45.235Z,99.90
2022-09-25T03:19:16.182Z,99.90
2022-09-25T03:21:44.909Z,99.90
2022-09-25T03:24:13.610Z,99.90
2022-09-25T03:26:42.653Z,99.90
2022-09-25T03:29:13.208Z,99.90
2022-09-25T03:31:42.766Z,99.90
2022-09-25T03:34:12.572Z,99.90
2022-09-25T03:36:43.273Z,99.90
2022-09-25T03:39:11.734Z,99.90
2022-09-25T03:41:40.092Z,99.90
2022-09-25T03:44:08.885Z,99.90
2022-09-25T03:46:38.161Z,99.90
2022-09-25T03:49:07.134Z,99.90
2022-09-25T03:51:35.937Z,99.90
2022-09-25T03:54:06.038Z,99.90
2022-09-25T03:56:34.986Z,99.90
2022-09-25T03:59:03.403Z,99.90
2022-09-25T04:01:32.358Z,99.90
2022-09-25T04:04:03.223Z,99.90
2022-09-25T04:06:31.806Z,99.90
2022-09-25T04:09:00.392Z,99.90
2022-09-25T04:11:30.080Z,99.90
2022-09-25T04:13:58.965Z,99.90
2022-09-25T04:16:29.513Z,99.90
2022-09-25T04:18:58.033Z,99.90
2022-09-25T04:21:26.442Z,99.90
2022-09-25T04:24:12.498Z,99.90
2022-09-25T04:26:42.291Z,99.90
2022-09-25T04:29:10.850Z,99.90
2022-09-25T04:31:39.421Z,99.90
2022-09-25T04:34:06.868Z,99.90
2022-09-25T04:36:35.562Z,99.90
2022-09-25T04:39:04.075Z,99.90
2022-09-25T04:41:33.205Z,99.90
2022-09-25T04:44:06.235Z,99.90
2022-09-25T04:46:34.670Z,99.90
2022-09-25T04:49:03.512Z,99.90
2022-09-25T04:51:31.912Z,99.90
2022-09-25T04:54:00.356Z,99.90
2022-09-25T04:56:28.980Z,99.90
2022-09-25T04:58:57.318Z,99.90
2022-09-25T05:01:27.154Z,99.90
2022-09-25T05:03:55.779Z,99.90
2022-09-25T05:06:27.032Z,99.90
2022-09-25T05:08:57.268Z,99.90
2022-09-25T05:11:26.040Z,99.90
2022-09-25T05:13:54.553Z,99.90
2022-09-25T05:16:22.994Z,99.90
2022-09-25T05:18:53.209Z,99.90
2022-09-25T05:21:21.709Z,99.90
2022-09-25T05:23:50.542Z,99.90
2022-09-25T05:26:19.374Z,99.90
2022-09-25T05:28:50.422Z,99.90
2022-09-25T05:31:19.331Z,99.90
2022-09-25T05:33:48.491Z,99.90
2022-09-25T05:36:18.882Z,99.90
2022-09-25T05:38:48.197Z,99.90
2022-09-25T05:41:17.286Z,99.90
2022-09-25T05:43:47.659Z,99.90
2022-09-25T05:46:16.487Z,99.90
2022-09-25T05:48:45.447Z,99.90
2022-09-25T05:51:13.713Z,99.90
2022-09-25T05:53:43.608Z,99.90
2022-09-25T05:56:12.264Z,99.90
2022-09-25T05:58:40.749Z,99.90
2022-09-25T06:01:09.269Z,99.90
2022-09-25T06:03:38.114Z,99.90
2022-09-25T06:06:07.833Z,99.90
2022-09-25T06:08:36.514Z,99.90
2022-09-25T06:11:07.910Z,99.90
2022-09-25T06:13:38.142Z,99.90
2022-09-25T06:16:14.429Z,99.90
2022-09-25T06:18:43.126Z,99.90
2022-09-25T06:21:11.866Z,99.90
2022-09-25T06:23:40.360Z,99.90
2022-09-25T06:26:10.447Z,99.90
2022-09-25T06:28:41.000Z,99.90
2022-09-25T06:31:10.076Z,99.90
2022-09-25T06:33:38.759Z,99.90
2022-09-25T06:36:07.481Z,99.90
2022-09-25T06:38:36.271Z,99.90
2022-09-25T06:41:04.739Z,99.90
2022-09-25T06:43:34.925Z,99.90
2022-09-25T06:46:03.931Z,99.90
2022-09-25T06:48:33.115Z,99.90
2022-09-25T06:51:02.701Z,99.90
2022-09-25T06:53:31.442Z,99.90
2022-09-25T06:56:01.135Z,99.90
2022-09-25T06:58:31.393Z,99.90
2022-09-25T07:01:06.288Z,99.90
2022-09-25T07:03:45.569Z,99.90
2022-09-25T07:06:16.835Z,99.90
2022-09-25T07:08:48.282Z,99.90
2022-09-25T07:11:18.949Z,99.90
2022-09-25T07:13:48.269Z,99.90
2022-09-25T07:16:19.672Z,99.90
2022-09-25T07:18:48.907Z,99.90
2022-09-25T07:21:20.013Z,99.90
2022-09-25T07:23:48.787Z,99.90
2022-09-25T07:26:22.712Z,99.90
2022-09-25T07:28:56.205Z,99.90
2022-09-25T07:31:27.961Z,99.90
2022-09-25T07:33:56.976Z,99.90
2022-09-25T07:36:25.421Z,99.90
2022-09-25T07:38:54.569Z,99.90
2022-09-25T07:41:23.934Z,99.90
2022-09-25T07:44:11.952Z,99.90
2022-09-25T07:46:46.585Z,99.90
2022-09-25T07:49:15.215Z,99.90
2022-09-25T07:51:43.642Z,99.90
2022-09-25T07:54:12.469Z,99.90
2022-09-25T07:56:40.947Z,99.90
2022-09-25T07:59:09.572Z,99.90
2022-09-25T08:01:43.718Z,99.90
2022-09-25T08:04:15.323Z,99.90
2022-09-25T08:06:44.413Z,99.90
2022-09-25T08:09:13.216Z,99.90
2022-09-25T08:11:41.865Z,99.90
2022-09-25T08:14:14.429Z,99.90
2022-09-25T08:16:43.884Z,99.90
2022-09-25T08:19:17.763Z,99.90
2022-09-25T08:21:46.738Z,99.90
2022-09-25T08:24:15.388Z,99.90
2022-09-25T08:26:43.862Z,99.90
2022-09-25T08:29:12.194Z,99.90
2022-09-25T08:31:41.087Z,99.90
2022-09-25T08:34:36.360Z,99.90
2022-09-25T08:37:00.215Z,99.90
2022-09-25T08:39:28.503Z,99.90
2022-09-25T08:41:57.921Z,99.90
2022-09-25T08:44:29.851Z,99.90
2022-09-25T08:50:15.969Z,99.90
2022-09-25T08:52:51.302Z,99.90
2022-09-25T08:55:45.823Z,99.90
2022-09-25T08:58:19.024Z,99.90
2022-09-25T09:00:47.958Z,99.90
2022-09-25T09:03:17.380Z,99.90
2022-09-25T09:05:51.494Z,99.90
2022-09-25T09:08:25.451Z,99.90
2022-09-25T09:10:57.029Z,99.90
2022-09-25T09:13:29.991Z,99.90
2022-09-25T09:16:02.894Z,99.90
2022-09-25T09:18:33.115Z,99.90
2022-09-25T09:21:12.442Z,99.90
2022-09-25T09:23:52.708Z,99.90
2022-09-25T09:26:25.945Z,99.90
2022-09-25T09:29:19.661Z,99.90
2022-09-25T09:31:58.046Z,99.90
2022-09-25T09:35:04.345Z,99.90
2022-09-25T09:37:41.350Z,99.90
2022-09-25T09:40:29.255Z,99.90
2022-09-25T09:43:06.209Z,99.90
2022-09-25T09:45:44.925Z,99.80
2022-09-25T09:48:20.020Z,99.40
2022-09-25T09:50:53.190Z,99.20
2022-09-25T09:53:31.356Z,99.30
2022-09-25T09:56:09.180Z,99.20
2022-09-25T09:58:46.096Z,99.10
2022-09-25T10:01:39.701Z,99.00
2022-09-25T10:04:08.222Z,98.90
2022-09-25T10:06:40.355Z,99.00
2022-09-25T10:09:15.550Z,99.10
2022-09-25T10:11:48.021Z,99.20
2022-09-25T10:14:21.782Z,99.20
2022-09-25T10:16:52.312Z,99.20
2022-09-25T10:19:23.527Z,99.30
2022-09-25T10:21:56.280Z,99.20
2022-09-25T10:24:51.823Z,99.20
2022-09-25T10:27:36.688Z,99.20
2022-09-25T10:30:15.731Z,99.20
2022-09-25T10:32:48.172Z,99.20
2022-09-25T10:35:20.002Z,99.20
2022-09-25T10:37:52.612Z,99.20
2022-09-25T10:40:33.515Z,99.20
2022-09-25T10:43:20.480Z,99.20
2022-09-25T10:45:52.703Z,99.10
2022-09-25T10:48:45.349Z,98.90
2022-09-25T10:51:17.347Z,98.80
2022-09-25T10:53:46.993Z,98.90
2022-09-25T10:56:20.609Z,98.70
2022-09-25T10:58:55.778Z,98.50
2022-09-25T11:01:33.421Z,98.60
2022-09-25T11:04:04.675Z,98.50
2022-09-25T11:06:35.948Z,98.20
2022-09-25T11:09:13.887Z,98.00
2022-09-25T11:11:50.429Z,97.80
2022-09-25T11:14:51.328Z,97.70
2022-09-25T11:17:33.475Z,97.70
2022-09-25T11:20:21.567Z,97.50
2022-09-25T11:22:56.237Z,97.50
2022-09-25T11:25:30.809Z,97.50
2022-09-25T11:28:06.899Z,97.50
2022-09-25T11:30:43.273Z,97.50
2022-09-25T11:33:18.945Z,97.60
2022-09-25T11:35:53.223Z,97.60
2022-09-25T11:38:50.138Z,97.60
2022-09-25T11:41:27.517Z,97.60
2022-09-25T11:44:16.141Z,97.70
2022-09-25T11:46:54.614Z,97.70
2022-09-25T11:49:25.131Z,97.70
2022-09-25T11:52:37.438Z,97.90
2022-09-25T11:55:37.217Z,98.00
2022-09-25T11:58:26.344Z,98.00
2022-09-25T12:01:02.408Z,98.00
2022-09-25T12:03:46.467Z,98.10
2022-09-25T12:06:48.174Z,97.90
2022-09-25T12:09:36.640Z,97.60
2022-09-25T12:12:15.627Z,97.50
2022-09-25T12:14:51.724Z,97.50
2022-09-25T12:17:28.024Z,97.50
2022-09-25T12:20:04.863Z,97.40
2022-09-25T12:22:43.661Z,97.40
2022-09-25T12:25:31.745Z,97.20
2022-09-25T12:28:08.823Z,97.10
2022-09-25T12:30:45.287Z,97.00
2022-09-25T12:33:25.018Z,97.10
2022-09-25T12:36:00.514Z,97.00
2022-09-25T12:38:39.718Z,96.80
2022-09-25T12:41:16.428Z,96.60
2022-09-25T12:43:49.601Z,96.50
2022-09-25T12:46:25.951Z,96.40
2022-09-25T12:48:59.167Z,96.60
2022-09-25T12:51:35.115Z,96.70
2022-09-25T12:54:10.672Z,96.70
2022-09-25T12:56:46.374Z,96.50
2022-09-25T12:59:20.554Z,95.90
2022-09-25T13:01:57.476Z,95.80
2022-09-25T13:04:47.503Z,95.20
2022-09-25T13:07:23.521Z,94.30
2022-09-25T13:09:52.351Z,94.50
2022-09-25T13:12:33.220Z,94.50
2022-09-25T13:15:06.842Z,94.40
2022-09-25T13:17:36.373Z,93.40
2022-09-25T13:20:42.705Z,92.80
2022-09-25T13:23:15.354Z,91.90
2022-09-25T13:25:46.917Z,92.10
2022-09-25T13:28:22.917Z,92.50
2022-09-25T13:31:13.550Z,92.80
2022-09-25T13:33:50.234Z,93.00
2022-09-25T13:36:34.294Z,93.20
2022-09-25T13:39:24.382Z,92.70
2022-09-25T13:41:56.409Z,92.60
2022-09-25T13:44:59.035Z,92.60
2022-09-25T13:48:07.919Z,92.60
2022-09-25T13:50:42.883Z,92.40
2022-09-25T13:53:23.704Z,92.30
2022-09-25T13:56:22.605Z,92.60
2022-09-25T13:59:28.309Z,92.70
2022-09-25T14:02:15.708Z,92.70
2022-09-25T14:04:48.639Z,92.70
2022-09-25T14:07:22.666Z,92.40
2022-09-25T14:09:54.791Z,92.50
2022-09-25T14:12:35.066Z,92.70
2022-09-25T14:15:07.434Z,92.90
2022-09-25T14:17:37.952Z,93.00
2022-09-25T14:20:20.603Z,93.00
2022-09-25T14:22:55.988Z,93.10
2022-09-25T14:25:33.225Z,93.00
2022-09-25T14:28:04.238Z,92.90
2022-09-25T14:30:33.227Z,93.10
2022-09-25T14:33:21.598Z,93.10
2022-09-25T14:36:00.115Z,93.30
2022-09-25T14:39:02.263Z,93.40
2022-09-25T14:42:02.031Z,93.50
2022-09-25T14:44:57.509Z,93.50
2022-09-25T14:47:33.912Z,93.40
2022-09-25T14:50:02.847Z,93.50
2022-09-25T14:52:35.021Z,93.70
2022-09-25T14:55:05.806Z,93.90
2022-09-25T14:57:39.772Z,94.10
2022-09-25T15:00:18.218Z,94.10
2022-09-25T15:02:48.204Z,94.30
2022-09-25T15:05:29.944Z,94.50
2022-09-25T15:08:02.285Z,94.60
2022-09-25T15:10:34.030Z,94.80
2022-09-25T15:13:13.613Z,95.00
2022-09-25T15:16:05.504Z,95.30
2022-09-25T15:18:37.194Z,95.60
2022-09-25T15:21:08.733Z,95.80
2022-09-25T15:23:38.588Z,95.90
2022-09-25T15:26:07.534Z,95.90
2022-09-25T15:28:40.287Z,95.90
2022-09-25T15:31:10.525Z,96.10
2022-09-25T15:33:40.910Z,96.40
2022-09-25T15:36:20.313Z,96.60
2022-09-25T15:38:54.809Z,96.80
2022-09-25T15:41:25.008Z,97.00
2022-09-25T15:43:54.036Z,97.20
2022-09-25T15:46:35.977Z,97.30
2022-09-25T15:49:05.339Z,97.60
2022-09-25T15:51:36.651Z,97.70
2022-09-25T15:54:23.176Z,98.00
2022-09-25T15:56:57.206Z,98.20
2022-09-25T15:59:30.504Z,98.40
2022-09-25T16:02:23.369Z,98.50
2022-09-25T16:04:53.147Z,98.70
2022-09-25T16:07:30.325Z,98.90
2022-09-25T16:10:00.506Z,99.30
2022-09-25T16:12:33.547Z,99.10
2022-09-25T16:15:30.131Z,99.20
2022-09-25T16:18:05.779Z,99.30
2022-09-25T16:20:36.859Z,99.40
2022-09-25T16:23:08.108Z,99.60
2022-09-25T16:25:43.284Z,99.80
2022-09-25T16:28:19.468Z,99.90
2022-09-25T16:30:49.612Z,99.90
2022-09-25T16:33:30.108Z,99.90
2022-09-25T16:36:16.727Z,99.90
2022-09-25T16:39:13.701Z,99.90
2022-09-25T16:41:48.573Z,99.90
2022-09-25T16:44:19.467Z,99.90
2022-09-25T16:47:05.914Z,99.90
2022-09-25T16:49:36.258Z,99.90
2022-09-25T16:52:08.452Z,99.90
2022-09-25T16:54:39.132Z,99.90
2022-09-25T16:57:07.851Z,99.90
2022-09-25T16:59:36.312Z,99.90
2022-09-25T17:02:15.676Z,99.90
2022-09-25T17:04:45.506Z,99.90
2022-09-25T17:07:15.086Z,99.90
2022-09-25T17:09:43.393Z,99.90
2022-09-25T17:12:19.186Z,99.90
2022-09-25T17:14:48.435Z,99.90
2022-09-25T17:17:20.581Z,99.90
2022-09-25T17:19:51.344Z,99.90
2022-09-25T17:22:19.815Z,99.90
2022-09-25T17:24:48.197Z,99.90
2022-09-25T17:27:17.792Z,99.90
2022-09-25T17:29:48.271Z,99.90
2022-09-25T17:32:17.337Z,99.90
2022-09-25T17:34:47.263Z,99.90
2022-09-25T17:37:16.927Z,99.90
2022-09-25T17:39:45.588Z,99.90
2022-09-25T17:42:13.979Z,99.90
2022-09-25T17:44:42.922Z,99.90
2022-09-25T17:47:13.273Z,99.90
2022-09-25T17:49:41.985Z,99.90
2022-09-25T17:52:15.076Z,99.90
2022-09-25T17:54:45.735Z,99.90
2022-09-25T17:57:14.172Z,99.90
2022-09-25T17:59:42.737Z,99.90
2022-09-25T18:02:16.878Z,99.90
2022-09-25T18:04:45.905Z,99.90
2022-09-25T18:07:15.439Z,99.90
2022-09-25T18:09:45.370Z,99.90
2022-09-25T18:12:13.654Z,99.90
2022-09-25T18:14:43.062Z,99.90
2022-09-25T18:17:11.774Z,99.90
2022-09-25T18:19:57.666Z,99.90
2022-09-25T18:22:26.442Z,99.90
2022-09-25T18:24:57.378Z,99.90
2022-09-25T18:27:28.947Z,99.90
2022-09-25T18:29:57.797Z,99.90
2022-09-25T18:32:26.310Z,99.90
2022-09-25T18:34:55.564Z,99.90
2022-09-25T18:37:24.082Z,99.90
2022-09-25T18:39:52.574Z,99.90
2022-09-25T18:42:22.639Z,99.90
2022-09-25T18:44:51.194Z,99.90
2022-09-25T18:47:19.513Z,99.90
2022-09-25T18:49:48.812Z,99.90
2022-09-25T18:52:17.462Z,99.90
2022-09-25T18:54:46.131Z,99.90
2022-09-25T18:57:15.779Z,99.90
2022-09-25T18:59:45.642Z,99.90
2022-09-25T19:02:20.946Z,99.90
2022-09-25T19:04:51.466Z,99.90
2022-09-25T19:07:20.752Z,99.90
2022-09-25T19:09:49.283Z,99.90
2022-09-25T19:12:18.434Z,99.90
2022-09-25T19:14:48.861Z,99.90
2022-09-25T19:17:18.741Z,99.90
2022-09-25T19:19:47.143Z,99.90
2022-09-25T19:22:18.621Z,99.90
2022-09-25T19:24:47.257Z,99.90
2022-09-25T19:27:17.710Z,99.90
2022-09-25T19:29:48.528Z,99.90
2022-09-25T19:32:18.720Z,99.90
2022-09-25T19:34:47.721Z,99.90
2022-09-25T19:37:16.268Z,99.90
2022-09-25T19:40:02.302Z,99.90
2022-09-25T19:42:33.507Z,99.90
2022-09-25T19:45:03.472Z,99.90
2022-09-25T19:47:32.937Z,99.90
2022-09-25T19:50:01.201Z,99.90
2022-09-25T19:52:30.132Z,99.90
2022-09-25T19:54:58.783Z,99.90
2022-09-25T19:57:27.676Z,99.90
2022-09-25T19:59:56.257Z,99.90
2022-09-25T20:02:26.458Z,99.90
2022-09-25T20:04:55.005Z,99.90
2022-09-25T20:07:23.314Z,99.90
2022-09-25T20:09:51.982Z,99.90
2022-09-25T20:12:23.716Z,99.90
2022-09-25T20:14:52.091Z,99.90
2022-09-25T20:17:20.530Z,99.90
2022-09-25T20:19:50.570Z,99.90
2022-09-25T20:22:18.949Z,99.90
2022-09-25T20:24:48.203Z,99.90
2022-09-25T20:27:21.010Z,99.90
2022-09-25T20:29:51.315Z,99.90
2022-09-25T20:32:19.853Z,99.90
2022-09-25T20:34:48.232Z,99.90
2022-09-25T20:37:18.177Z,99.90
2022-09-25T20:39:46.943Z,99.90
2022-09-25T20:42:17.100Z,99.90
2022-09-25T20:44:46.330Z,99.90
2022-09-25T20:47:15.349Z,99.90
2022-09-25T20:49:44.246Z,99.90
2022-09-25T20:52:13.289Z,99.90
2022-09-25T20:54:43.338Z,99.90
2022-09-25T20:57:13.716Z,99.90
2022-09-25T20:59:42.577Z,99.90
2022-09-25T21:02:12.124Z,99.90
2022-09-25T21:04:40.908Z,99.90
2022-09-25T21:07:13.156Z,99.90
2022-09-25T21:09:46.521Z,99.90
2022-09-25T21:12:15.142Z,99.90
2022-09-25T21:14:44.062Z,99.90
2022-09-25T21:17:13.119Z,99.90
2022-09-25T21:19:41.906Z,99.90
2022-09-25T21:22:10.277Z,99.90
2022-09-25T21:24:39.688Z,99.90
2022-09-25T21:27:09.582Z,99.90
2022-09-25T21:29:38.013Z,99.90
2022-09-25T21:32:06.417Z,99.90
2022-09-25T21:34:35.034Z,99.90
2022-09-25T21:37:03.468Z,99.90
2022-09-25T21:39:32.056Z,99.90
2022-09-25T21:42:03.062Z,99.90
2022-09-25T21:44:33.483Z,99.90
2022-09-25T21:47:02.249Z,99.90
2022-09-25T21:49:30.685Z,99.90
2022-09-25T21:51:59.114Z,99.90
2022-09-25T21:54:28.363Z,99.90
2022-09-25T21:56:56.694Z,99.90
2022-09-25T21:59:25.173Z,99.90
2022-09-25T22:01:55.933Z,99.90
2022-09-25T22:04:25.056Z,99.90
2022-09-25T22:06:54.099Z,99.90
2022-09-25T22:09:24.361Z,99.90
2022-09-25T22:11:53.153Z,99.90
2022-09-25T22:14:22.534Z,99.90
2022-09-25T22:16:53.168Z,99.90
2022-09-25T22:19:25.995Z,99.90
2022-09-25T22:21:58.314Z,99.90
2022-09-25T22:24:27.295Z,99.90
2022-09-25T22:26:56.902Z,99.90
2022-09-25T22:29:27.066Z,99.90
2022-09-25T22:31:56.097Z,99.90
2022-09-25T22:34:28.022Z,99.90
2022-09-25T22:36:59.904Z,99.90
2022-09-25T22:39:30.333Z,99.90
2022-09-25T22:41:58.753Z,99.90
2022-09-25T22:44:27.580Z,99.90
2022-09-25T22:46:57.198Z,99.90
2022-09-25T22:49:27.084Z,99.90
2022-09-25T22:51:55.635Z,99.90
2022-09-25T22:54:24.027Z,99.90
2022-09-25T22:56:54.349Z,99.90
2022-09-25T22:59:23.139Z,99.90
2022-09-25T23:01:53.532Z,99.90
2022-09-25T23:04:23.823Z,99.90
2022-09-25T23:06:54.664Z,99.90
2022-09-25T23:09:25.983Z,99.90
2022-09-25T23:11:55.479Z,99.90
2022-09-25T23:14:26.023Z,99.90
2022-09-25T23:16:55.613Z,99.90
2022-09-25T23:19:24.926Z,99.90
2022-09-25T23:21:55.401Z,99.90
2022-09-25T23:24:24.965Z,99.90
2022-09-25T23:26:53.595Z,99.90
2022-09-25T23:29:23.079Z,99.90
2022-09-25T23:31:52.012Z,99.90
2022-09-25T23:34:20.848Z,99.90
2022-09-25T23:36:49.357Z,99.90
2022-09-25T23:39:21.077Z,99.90
2022-09-25T23:41:50.195Z,99.90
2022-09-25T23:44:18.787Z,99.90
2022-09-25T23:46:47.290Z,99.90
2022-09-25T23:49:16.281Z,99.90
2022-09-25T23:51:46.265Z,99.90
2022-09-25T23:54:15.124Z,99.90
2022-09-25T23:56:45.442Z,99.90
2022-09-25T23:59:14.556Z,99.90
